createdAt,value
2023-05-06T00:00:57.457Z,99255.00
2023-05-06T00:03:24.059Z,99255.44
2023-05-06T00:05:50.659Z,99264.13
2023-05-06T00:08:17.091Z,99257.41
2023-05-06T00:10:43.560Z,99251.84
2023-05-06T00:13:10.066Z,99251.47
2023-05-06T00:15:36.633Z,99248.66
2023-05-06T00:18:03.284Z,99239.94
2023-05-06T00:20:29.956Z,99241.44
2023-05-06T00:22:56.384Z,99238.63
2023-05-06T00:25:22.879Z,99239.81
2023-05-06T00:27:49.389Z,99227.97
2023-05-06T00:30:15.806Z,99229.97
2023-05-06T00:32:42.440Z,99230.44
2023-05-06T00:35:09.314Z,99226.50
2023-05-06T00:37:35.951Z,99226.50
2023-05-06T00:40:03.497Z,99217.78
2023-05-06T00:42:30.013Z,99220.16
2023-05-06T00:44:56.436Z,99218.59
2023-05-06T00:47:23.339Z,99226.09
2023-05-06T00:49:50.004Z,99232.75
2023-05-06T00:52:17.577Z,99230.34
2023-05-06T00:54:44.386Z,99238.28
2023-05-06T00:57:10.828Z,99252.59
2023-05-06T00:59:37.382Z,99259.69
2023-05-06T01:02:04.455Z,99279.00
2023-05-06T01:04:31.111Z,99289.59
2023-05-06T01:06:57.625Z,99308.97
2023-05-06T01:09:26.038Z,99312.97
2023-05-06T01:11:59.691Z,99311.75
2023-05-06T01:14:30.086Z,99301.06
2023-05-06T01:17:00.176Z,99306.25
2023-05-06T01:19:36.732Z,99300.72
2023-05-06T01:22:05.020Z,99303.06
2023-05-06T01:24:35.716Z,99295.56
2023-05-06T01:27:02.164Z,99303.84
2023-05-06T01:29:28.687Z,99314.59
2023-05-06T01:31:59.254Z,99309.28
2023-05-06T01:34:28.001Z,99324.78
2023-05-06T01:37:00.434Z,99317.25
2023-05-06T01:39:30.122Z,99314.47
2023-05-06T01:41:57.530Z,99308.88
2023-05-06T01:44:24.571Z,99304.13
2023-05-06T01:46:51.718Z,99305.38
2023-05-06T01:49:19.575Z,99298.63
2023-05-06T01:51:50.054Z,99306.53
2023-05-06T01:54:16.740Z,99308.88
2023-05-06T01:56:43.282Z,99298.53
2023-05-06T01:59:09.947Z,99310.41
2023-05-06T02:01:36.432Z,99315.88
2023-05-06T02:04:03.079Z,99313.47
2023-05-06T02:06:29.555Z,99314.19
2023-05-06T02:08:56.003Z,99313.31
2023-05-06T02:11:22.450Z,99313.28
2023-05-06T02:13:48.957Z,99309.22
2023-05-06T02:16:15.424Z,99313.19
2023-05-06T02:18:41.906Z,99310.03
2023-05-06T02:21:09.641Z,99302.88
2023-05-06T02:23:36.106Z,99308.06
2023-05-06T02:26:02.575Z,99306.88
2023-05-06T02:28:28.992Z,99313.91
2023-05-06T02:30:58.807Z,99312.72
2023-05-06T02:33:25.240Z,99305.63
2023-05-06T02:35:51.676Z,99305.25
2023-05-06T02:38:18.971Z,99304.50
2023-05-06T02:40:45.400Z,99306.06
2023-05-06T02:43:11.878Z,99309.22
2023-05-06T02:45:38.333Z,99298.97
2023-05-06T02:48:04.878Z,99302.53
2023-05-06T02:50:31.340Z,99301.28
2023-05-06T02:52:57.756Z,99293.34
2023-05-06T02:55:24.161Z,99296.56
2023-05-06T02:57:50.654Z,99288.13
2023-05-06T03:00:17.409Z,99288.84
2023-05-06T03:02:44.551Z,99281.75
2023-05-06T03:05:11.212Z,99286.91
2023-05-06T03:07:38.460Z,99292.41
2023-05-06T03:10:05.103Z,99293.22
2023-05-06T03:12:31.626Z,99295.59
2023-05-06T03:14:58.020Z,99297.19
2023-05-06T03:17:24.483Z,99295.94
2023-05-06T03:19:51.088Z,99292.41
2023-05-06T03:22:17.560Z,99297.09
2023-05-06T03:24:43.975Z,99287.56
2023-05-06T03:27:10.381Z,99280.41
2023-05-06T03:29:36.790Z,99274.41
2023-05-06T03:32:04.094Z,99275.16
2023-05-06T03:34:30.692Z,99279.16
2023-05-06T03:36:57.832Z,99286.28
2023-05-06T03:39:24.693Z,99281.56
2023-05-06T03:41:51.220Z,99293.88
2023-05-06T03:44:17.647Z,99296.28
2023-05-06T03:46:44.091Z,99297.84
2023-05-06T03:49:10.731Z,99293.81
2023-05-06T03:51:37.372Z,99292.16
2023-05-06T03:54:04.202Z,99294.56
2023-05-06T03:56:30.697Z,99284.69
2023-05-06T03:58:57.168Z,99291.06
2023-05-06T04:01:23.576Z,99300.56
2023-05-06T04:03:50.134Z,99301.00
2023-05-06T04:06:16.584Z,99292.25
2023-05-06T04:08:43.019Z,99301.66
2023-05-06T04:11:09.460Z,99312.69
2023-05-06T04:13:35.902Z,99314.66
2023-05-06T04:16:03.049Z,99313.09
2023-05-06T04:18:29.562Z,99310.41
2023-05-06T04:20:56.035Z,99304.09
2023-05-06T04:23:22.551Z,99304.94
2023-05-06T04:25:48.936Z,99309.69
2023-05-06T04:28:18.883Z,99318.47
2023-05-06T04:30:47.157Z,99318.97
2023-05-06T04:33:13.947Z,99317.47
2023-05-06T04:35:41.097Z,99319.53
2023-05-06T04:38:07.555Z,99325.94
2023-05-06T04:40:35.275Z,99321.22
2023-05-06T04:43:02.997Z,99320.84
2023-05-06T04:45:29.894Z,99327.66
2023-05-06T04:47:56.490Z,99325.75
2023-05-06T04:50:22.975Z,99314.78
2023-05-06T04:52:49.388Z,99320.78
2023-05-06T04:55:15.805Z,99324.41
2023-05-06T04:57:42.340Z,99324.06
2023-05-06T05:00:10.549Z,99324.09
2023-05-06T05:02:37.386Z,99322.13
2023-05-06T05:05:03.968Z,99317.38
2023-05-06T05:07:30.468Z,99329.31
2023-05-06T05:09:57.268Z,99329.28
2023-05-06T05:12:23.671Z,99318.56
2023-05-06T05:14:50.079Z,99324.91
2023-05-06T05:17:16.605Z,99320.94
2023-05-06T05:19:43.110Z,99328.03
2023-05-06T05:22:09.540Z,99331.59
2023-05-06T05:24:36.050Z,99339.16
2023-05-06T05:27:02.647Z,99340.75
2023-05-06T05:29:29.072Z,99337.56
2023-05-06T05:31:55.609Z,99343.13
2023-05-06T05:34:22.034Z,99344.66
2023-05-06T05:36:48.439Z,99346.63
2023-05-06T05:39:14.889Z,99344.25
2023-05-06T05:41:41.383Z,99345.06
2023-05-06T05:44:07.790Z,99347.88
2023-05-06T05:46:34.308Z,99358.59
2023-05-06T05:49:00.918Z,99360.22
2023-05-06T05:51:27.320Z,99362.19
2023-05-06T05:53:53.717Z,99361.81
2023-05-06T05:56:20.677Z,99367.34
2023-05-06T05:58:47.512Z,99367.75
2023-05-06T06:01:14.645Z,99362.59
2023-05-06T06:03:41.721Z,99372.47
2023-05-06T06:06:08.508Z,99380.84
2023-05-06T06:08:35.124Z,99380.06
2023-05-06T06:11:05.814Z,99377.28
2023-05-06T06:13:32.446Z,99380.47
2023-05-06T06:15:59.566Z,99377.28
2023-05-06T06:18:26.078Z,99380.47
2023-05-06T06:20:53.479Z,99381.22
2023-05-06T06:23:20.965Z,99384.00
2023-05-06T06:25:47.472Z,99381.25
2023-05-06T06:28:13.879Z,99374.91
2023-05-06T06:30:40.890Z,99378.06
2023-05-06T06:33:07.584Z,99376.06
2023-05-06T06:35:34.976Z,99382.81
2023-05-06T06:38:01.583Z,99383.59
2023-05-06T06:40:28.116Z,99386.78
2023-05-06T06:42:54.619Z,99384.38
2023-05-06T06:45:21.097Z,99394.31
2023-05-06T06:47:47.581Z,99384.81
2023-05-06T06:50:14.123Z,99392.34
2023-05-06T06:52:40.590Z,99396.31
2023-05-06T06:55:07.275Z,99398.31
2023-05-06T06:57:33.671Z,99396.31
2023-05-06T07:00:00.150Z,99384.41
2023-05-06T07:02:26.676Z,99385.59
2023-05-06T07:04:53.619Z,99385.59
2023-05-06T07:07:20.061Z,99389.97
2023-05-06T07:09:46.484Z,99393.94
2023-05-06T07:12:13.023Z,99395.50
2023-05-06T07:14:39.504Z,99398.69
2023-05-06T07:17:06.111Z,99399.88
2023-05-06T07:19:32.558Z,99401.06
2023-05-06T07:21:59.031Z,99403.03
2023-05-06T07:24:25.469Z,99409.75
2023-05-06T07:26:51.882Z,99408.19
2023-05-06T07:29:18.325Z,99399.44
2023-05-06T07:31:44.757Z,99396.59
2023-05-06T07:34:11.400Z,99407.31
2023-05-06T07:36:40.916Z,99404.50
2023-05-06T07:39:07.710Z,99406.03
2023-05-06T07:41:34.196Z,99405.97
2023-05-06T07:44:00.813Z,99405.91
2023-05-06T07:46:27.348Z,99406.19
2023-05-06T07:48:53.818Z,99404.53
2023-05-06T07:51:20.528Z,99411.66
2023-05-06T07:53:46.964Z,99409.16
2023-05-06T07:56:13.412Z,99401.44
2023-05-06T07:58:39.868Z,99414.34
2023-05-06T08:01:06.596Z,99412.28
2023-05-06T08:03:33.382Z,99421.38
2023-05-06T08:06:00.255Z,99417.25
2023-05-06T08:08:28.150Z,99422.69
2023-05-06T08:10:58.267Z,99423.38
2023-05-06T08:13:25.144Z,99415.81
2023-05-06T08:15:51.928Z,99405.97
2023-05-06T08:18:22.944Z,99414.63
2023-05-06T08:20:51.241Z,99418.25
2023-05-06T08:23:17.711Z,99413.06
2023-05-06T08:25:44.181Z,99417.19
2023-05-06T08:28:10.640Z,99423.56
2023-05-06T08:30:37.059Z,99422.22
2023-05-06T08:33:03.712Z,99418.84
2023-05-06T08:35:30.172Z,99418.41
2023-05-06T08:37:56.612Z,99416.63
2023-05-06T08:40:24.176Z,99430.47
2023-05-06T08:42:50.850Z,99422.97
2023-05-06T08:45:17.646Z,99428.19
2023-05-06T08:47:44.265Z,99431.91
2023-05-06T08:50:11.111Z,99425.84
2023-05-06T08:52:38.297Z,99428.25
2023-05-06T08:55:05.331Z,99427.47
2023-05-06T08:57:32.663Z,99423.44
2023-05-06T08:59:59.379Z,99416.13
2023-05-06T09:02:26.241Z,99416.84
2023-05-06T09:04:53.682Z,99415.00
2023-05-06T09:07:23.857Z,99415.59
2023-05-06T09:09:51.211Z,99417.19
2023-05-06T09:12:17.621Z,99408.06
2023-05-06T09:14:44.142Z,99414.34
2023-05-06T09:17:28.298Z,99413.81
2023-05-06T09:19:56.972Z,99412.22
2023-05-06T09:22:24.162Z,99414.31
2023-05-06T09:24:57.069Z,99410.75
2023-05-06T09:27:25.073Z,99414.56
2023-05-06T09:30:05.194Z,99415.13
2023-05-06T09:32:32.085Z,99416.66
2023-05-06T09:34:58.570Z,99409.75
2023-05-06T09:37:26.519Z,99409.28
2023-05-06T09:39:54.587Z,99407.97
2023-05-06T09:42:25.325Z,99404.72
2023-05-06T09:44:53.924Z,99403.91
2023-05-06T09:47:33.101Z,99404.38
2023-05-06T09:50:00.830Z,99405.81
2023-05-06T09:52:27.717Z,99400.53
2023-05-06T09:54:54.879Z,99399.19
2023-05-06T09:57:22.244Z,99399.69
2023-05-06T09:59:49.340Z,99398.34
2023-05-06T10:02:16.347Z,99396.09
2023-05-06T10:04:43.736Z,99388.25
2023-05-06T10:07:12.829Z,99398.50
2023-05-06T10:09:40.662Z,99399.00
2023-05-06T10:12:08.646Z,99397.41
2023-05-06T10:14:38.109Z,99401.59
2023-05-06T10:17:09.153Z,99399.34
2023-05-06T10:19:36.559Z,99398.53
2023-05-06T10:22:08.913Z,99394.56
2023-05-06T10:24:45.503Z,99399.91
2023-05-06T10:27:12.250Z,99397.28
2023-05-06T10:29:38.724Z,99390.84
2023-05-06T10:32:07.205Z,99385.16
2023-05-06T10:34:37.461Z,99381.47
2023-05-06T10:37:04.988Z,99378.59
2023-05-06T10:39:32.026Z,99371.81
2023-05-06T10:41:58.489Z,99367.56
2023-05-06T10:44:45.059Z,99373.94
2023-05-06T10:47:12.499Z,99366.38
2023-05-06T10:49:39.111Z,99364.94
2023-05-06T10:52:14.937Z,99361.22
2023-05-06T10:54:51.592Z,99365.19
2023-05-06T10:57:18.385Z,99365.47
2023-05-06T10:59:46.639Z,99367.75
2023-05-06T11:02:13.671Z,99374.91
2023-05-06T11:04:40.317Z,99370.47
2023-05-06T11:07:11.229Z,99371.09
2023-05-06T11:09:56.310Z,99374.38
2023-05-06T11:12:22.731Z,99380.19
2023-05-06T11:14:49.369Z,99358.81
2023-05-06T11:17:33.157Z,99360.88
2023-05-06T11:20:18.965Z,99357.34
2023-05-06T11:22:45.650Z,99364.41
2023-05-06T11:25:12.321Z,99355.78
2023-05-06T11:27:38.778Z,99346.00
2023-05-06T11:30:05.550Z,99348.69
2023-05-06T11:32:33.059Z,99342.97
2023-05-06T11:34:59.589Z,99348.09
2023-05-06T11:37:26.794Z,99342.56
2023-05-06T11:39:53.291Z,99347.31
2023-05-06T11:42:27.018Z,99348.25
2023-05-06T11:44:55.161Z,99350.00
2023-05-06T11:47:22.789Z,99349.34
2023-05-06T11:49:53.807Z,99361.59
2023-05-06T11:52:23.188Z,99353.22
2023-05-06T11:54:51.125Z,99354.19
2023-05-06T11:57:19.362Z,99358.59
2023-05-06T11:59:45.944Z,99346.19
2023-05-06T12:02:13.914Z,99350.66
2023-05-06T12:04:41.783Z,99352.25
2023-05-06T12:07:09.139Z,99347.53
2023-05-06T12:09:37.113Z,99350.03
2023-05-06T12:12:04.343Z,99345.22
2023-05-06T12:14:30.930Z,99350.00
2023-05-06T12:16:57.529Z,99355.03
2023-05-06T12:19:24.313Z,99340.25
2023-05-06T12:21:50.736Z,99337.75
2023-05-06T12:24:26.845Z,99342.59
2023-05-06T12:26:53.287Z,99341.16
2023-05-06T12:29:19.733Z,99334.97
2023-05-06T12:31:47.382Z,99338.50
2023-05-06T12:34:14.759Z,99325.28
2023-05-06T12:36:42.206Z,99324.66
2023-05-06T12:39:09.516Z,99318.00
2023-05-06T12:41:39.773Z,99317.84
2023-05-06T12:44:25.701Z,99324.41
2023-05-06T12:46:54.822Z,99320.53
2023-05-06T12:49:21.557Z,99318.56
2023-05-06T12:52:04.200Z,99325.06
2023-05-06T12:54:31.490Z,99314.91
2023-05-06T12:56:57.966Z,99323.91
2023-05-06T12:59:24.777Z,99323.44
2023-05-06T13:01:51.239Z,99330.78
2023-05-06T13:04:17.658Z,99315.91
2023-05-06T13:06:44.158Z,99321.88
2023-05-06T13:09:11.413Z,99319.50
2023-05-06T13:11:39.032Z,99323.34
2023-05-06T13:14:05.454Z,99306.34
2023-05-06T13:16:32.380Z,99281.28
2023-05-06T13:18:59.152Z,99281.03
2023-05-06T13:21:25.546Z,99273.72
2023-05-06T13:23:51.946Z,99276.13
2023-05-06T13:26:18.727Z,99265.00
2023-05-06T13:28:45.186Z,99260.38
2023-05-06T13:31:11.664Z,99251.94
2023-05-06T13:33:38.529Z,99254.22
2023-05-06T13:36:05.634Z,99245.00
2023-05-06T13:38:32.361Z,99251.94
2023-05-06T13:40:58.849Z,99233.56
2023-05-06T13:43:25.294Z,99238.72
2023-05-06T13:45:51.957Z,99237.13
2023-05-06T13:48:18.413Z,99244.75
2023-05-06T13:50:48.802Z,99233.75
2023-05-06T13:53:15.249Z,99225.28
2023-05-06T13:55:41.966Z,99230.59
2023-05-06T13:58:08.802Z,99223.47
2023-05-06T14:00:36.236Z,99225.88
2023-05-06T14:03:02.750Z,99231.41
2023-05-06T14:05:29.379Z,99235.03
2023-05-06T14:07:55.935Z,99242.31
2023-05-06T14:10:22.345Z,99239.34
2023-05-06T14:12:48.818Z,99240.13
2023-05-06T14:15:15.246Z,99237.50
2023-05-06T14:17:41.748Z,99242.25
2023-05-06T14:20:11.791Z,99249.72
2023-05-06T14:22:40.238Z,99254.16
2023-05-06T14:25:07.013Z,99250.38
2023-05-06T14:27:33.599Z,99249.34
2023-05-06T14:30:01.689Z,99250.09
2023-05-06T14:32:28.158Z,99254.19
2023-05-06T14:34:54.612Z,99256.84
2023-05-06T14:37:20.991Z,99249.28
2023-05-06T14:39:47.421Z,99248.47
2023-05-06T14:42:13.921Z,99234.50
2023-05-06T14:44:40.405Z,99237.03
2023-05-06T14:47:06.850Z,99223.00
2023-05-06T14:49:33.282Z,99227.06
2023-05-06T14:51:59.697Z,99231.94
2023-05-06T14:54:26.866Z,99234.91
2023-05-06T14:56:53.337Z,99228.22
2023-05-06T14:59:19.844Z,99218.25
2023-05-06T15:01:46.298Z,99227.69
2023-05-06T15:04:12.824Z,99227.47
2023-05-06T15:06:39.265Z,99235.38
2023-05-06T15:09:05.846Z,99239.75
2023-05-06T15:11:32.357Z,99241.94
2023-05-06T15:13:58.811Z,99250.81
2023-05-06T15:16:25.403Z,99276.91
2023-05-06T15:18:51.829Z,99282.69
2023-05-06T15:21:18.264Z,99273.81
2023-05-06T15:23:46.369Z,99287.78
2023-05-06T15:26:12.793Z,99306.88
2023-05-06T15:28:39.304Z,99299.53
2023-05-06T15:31:05.868Z,99305.63
2023-05-06T15:33:32.368Z,99316.94
2023-05-06T15:35:58.941Z,99304.28
2023-05-06T15:38:25.477Z,99290.41
2023-05-06T15:40:52.288Z,99286.78
2023-05-06T15:43:23.611Z,99304.25
2023-05-06T15:45:51.280Z,99295.47
2023-05-06T15:48:17.737Z,99290.69
2023-05-06T15:50:44.141Z,99284.25
2023-05-06T15:53:11.410Z,99281.00
2023-05-06T15:55:46.647Z,99287.31
2023-05-06T15:58:16.125Z,99290.09
2023-05-06T16:00:43.041Z,99284.91
2023-05-06T16:03:11.994Z,99283.25
2023-05-06T16:05:39.132Z,99283.16
2023-05-06T16:08:05.759Z,99285.50
2023-05-06T16:10:32.197Z,99291.00
2023-05-06T16:12:58.730Z,99298.06
2023-05-06T16:15:25.184Z,99298.81
2023-05-06T16:17:51.616Z,99290.88
2023-05-06T16:20:18.124Z,99284.44
2023-05-06T16:22:49.537Z,99287.34
2023-05-06T16:25:16.183Z,99283.81
2023-05-06T16:27:42.593Z,99278.28
2023-05-06T16:30:09.898Z,99287.03
2023-05-06T16:32:36.511Z,99283.47
2023-05-06T16:35:03.010Z,99291.06
2023-05-06T16:37:29.507Z,99286.25
2023-05-06T16:39:56.025Z,99287.06
2023-05-06T16:42:22.556Z,99292.53
2023-05-06T16:44:48.991Z,99291.69
2023-05-06T16:47:16.026Z,99283.69
2023-05-06T16:49:42.530Z,99287.72
2023-05-06T16:52:08.947Z,99292.25
2023-05-06T16:54:35.400Z,99294.28
2023-05-06T16:57:03.401Z,99291.94
2023-05-06T16:59:30.165Z,99297.06
2023-05-06T17:01:56.592Z,99293.47
2023-05-06T17:04:24.688Z,99303.81
2023-05-06T17:06:51.259Z,99299.03
2023-05-06T17:09:17.734Z,99294.28
2023-05-06T17:11:44.236Z,99293.97
2023-05-06T17:14:11.435Z,99295.22
2023-05-06T17:16:38.519Z,99294.41
2023-05-06T17:19:05.000Z,99303.91
2023-05-06T17:21:31.917Z,99302.28
2023-05-06T17:23:58.716Z,99308.63
2023-05-06T17:26:25.186Z,99308.56
2023-05-06T17:28:51.636Z,99309.69
2023-05-06T17:31:18.483Z,99325.13
2023-05-06T17:33:45.171Z,99322.28
2023-05-06T17:36:16.113Z,99325.78
2023-05-06T17:38:42.944Z,99315.78
2023-05-06T17:41:09.350Z,99318.59
2023-05-06T17:43:35.945Z,99327.47
2023-05-06T17:46:02.428Z,99328.84
2023-05-06T17:48:28.897Z,99323.00
2023-05-06T17:51:00.054Z,99330.19
2023-05-06T17:53:26.491Z,99334.19
2023-05-06T17:55:52.985Z,99329.88
2023-05-06T17:58:19.499Z,99327.13
2023-05-06T18:00:45.967Z,99332.66
2023-05-06T18:03:12.495Z,99329.06
2023-05-06T18:05:38.980Z,99333.88
2023-05-06T18:08:06.677Z,99328.72
2023-05-06T18:10:33.157Z,99335.16
2023-05-06T18:12:59.706Z,99328.84
2023-05-06T18:15:26.218Z,99329.69
2023-05-06T18:17:52.676Z,99336.81
2023-05-06T18:20:19.199Z,99336.78
2023-05-06T18:22:46.369Z,99335.19
2023-05-06T18:25:13.053Z,99351.03
2023-05-06T18:27:39.790Z,99355.78
2023-05-06T18:30:06.658Z,99354.59
2023-05-06T18:32:33.969Z,99355.75
2023-05-06T18:35:00.596Z,99367.63
2023-05-06T18:37:29.947Z,99367.22
2023-05-06T18:39:56.491Z,99369.94
2023-05-06T18:42:23.204Z,99374.31
2023-05-06T18:44:52.566Z,99382.63
2023-05-06T18:47:19.807Z,99382.63
2023-05-06T18:49:46.248Z,99390.13
2023-05-06T18:52:14.866Z,99387.38
2023-05-06T18:54:41.509Z,99386.53
2023-05-06T18:57:08.185Z,99382.94
2023-05-06T18:59:34.665Z,99388.03
2023-05-06T19:02:01.947Z,99377.66
2023-05-06T19:04:29.748Z,99381.94
2023-05-06T19:06:56.268Z,99380.66
2023-05-06T19:09:22.659Z,99386.91
2023-05-06T19:11:49.065Z,99381.28
2023-05-06T19:14:15.602Z,99390.69
2023-05-06T19:16:42.061Z,99383.47
2023-05-06T19:19:08.541Z,99383.00
2023-05-06T19:21:35.173Z,99385.75
2023-05-06T19:24:01.646Z,99389.69
2023-05-06T19:26:28.316Z,99394.34
2023-05-06T19:28:54.724Z,99395.50
2023-05-06T19:31:21.215Z,99388.00
2023-05-06T19:33:47.724Z,99395.56
2023-05-06T19:36:14.132Z,99400.63
2023-05-06T19:38:40.611Z,99400.88
2023-05-06T19:41:08.446Z,99402.00
2023-05-06T19:43:40.170Z,99409.09
2023-05-06T19:46:06.889Z,99401.19
2023-05-06T19:48:35.547Z,99409.50
2023-05-06T19:51:03.316Z,99405.53
2023-05-06T19:53:29.726Z,99403.16
2023-05-06T19:55:57.920Z,99396.53
2023-05-06T19:58:24.341Z,99401.38
2023-05-06T20:00:50.846Z,99398.34
2023-05-06T20:03:17.372Z,99408.66
2023-05-06T20:05:43.824Z,99404.69
2023-05-06T20:08:11.377Z,99406.28
2023-05-06T20:10:38.368Z,99400.00
2023-05-06T20:13:05.036Z,99410.38
2023-05-06T20:15:31.896Z,99417.13
2023-05-06T20:17:58.426Z,99411.25
2023-05-06T20:20:32.036Z,99408.53
2023-05-06T20:22:58.438Z,99408.97
2023-05-06T20:25:25.032Z,99402.63
2023-05-06T20:27:51.500Z,99403.03
2023-05-06T20:30:17.979Z,99406.19
2023-05-06T20:32:46.980Z,99403.38
2023-05-06T20:35:13.521Z,99404.53
2023-05-06T20:37:41.264Z,99403.28
2023-05-06T20:40:08.021Z,99406.41
2023-05-06T20:42:34.544Z,99403.22
2023-05-06T20:45:01.152Z,99403.63
2023-05-06T20:47:27.673Z,99404.03
2023-05-06T20:49:54.474Z,99406.81
2023-05-06T20:52:21.799Z,99409.88
2023-05-06T20:54:48.508Z,99411.81
2023-05-06T20:57:15.625Z,99412.22
2023-05-06T20:59:42.222Z,99414.66
2023-05-06T21:02:09.378Z,99416.38
2023-05-06T21:04:35.886Z,99413.34
2023-05-06T21:07:02.285Z,99406.31
2023-05-06T21:09:29.026Z,99411.09
2023-05-06T21:11:56.125Z,99401.19
2023-05-06T21:14:24.827Z,99413.84
2023-05-06T21:16:52.034Z,99413.44
2023-05-06T21:19:18.702Z,99410.75
2023-05-06T21:21:45.231Z,99404.13
2023-05-06T21:24:12.148Z,99403.38
2023-05-06T21:26:38.949Z,99405.28
2023-05-06T21:29:05.492Z,99398.91
2023-05-06T21:31:31.991Z,99393.38
2023-05-06T21:33:58.786Z,99404.41
2023-05-06T21:36:26.038Z,99396.78
2023-05-06T21:38:59.910Z,99405.00
2023-05-06T21:41:26.484Z,99403.41
2023-05-06T21:43:52.893Z,99397.44
2023-05-06T21:46:19.366Z,99403.81
2023-05-06T21:48:45.870Z,99401.50
2023-05-06T21:51:12.265Z,99406.66
2023-05-06T21:53:38.662Z,99401.19
2023-05-06T21:56:05.197Z,99401.19
2023-05-06T21:58:31.661Z,99393.25
2023-05-06T22:00:58.069Z,99396.44
2023-05-06T22:03:24.570Z,99396.06
2023-05-06T22:05:51.281Z,99404.00
2023-05-06T22:08:17.702Z,99395.31
2023-05-06T22:10:44.246Z,99400.44
2023-05-06T22:13:11.030Z,99389.31
2023-05-06T22:15:37.608Z,99388.03
2023-05-06T22:18:04.240Z,99382.03
2023-05-06T22:20:30.701Z,99377.63
2023-05-06T22:22:57.092Z,99377.16
2023-05-06T22:25:23.563Z,99377.91
2023-05-06T22:27:50.006Z,99373.16
2023-05-06T22:30:16.465Z,99380.28
2023-05-06T22:32:42.962Z,99373.19
2023-05-06T22:35:09.782Z,99366.47
2023-05-06T22:37:36.402Z,99372.41
2023-05-06T22:40:02.983Z,99368.84
2023-05-06T22:42:29.400Z,99373.59
2023-05-06T22:44:55.843Z,99370.44
2023-05-06T22:47:22.301Z,99368.47
2023-05-06T22:49:48.706Z,99373.59
2023-05-06T22:52:15.174Z,99364.91
2023-05-06T22:54:41.578Z,99368.47
2023-05-06T22:57:07.976Z,99364.50
2023-05-06T22:59:34.410Z,99368.06
2023-05-06T23:02:01.256Z,99367.28
2023-05-06T23:04:27.702Z,99366.09
2023-05-06T23:06:54.099Z,99356.59
2023-05-06T23:09:20.591Z,99357.44
2023-05-06T23:11:47.045Z,99356.66
2023-05-06T23:14:13.469Z,99361.38
2023-05-06T23:16:39.980Z,99356.19
2023-05-06T23:19:06.683Z,99358.56
2023-05-06T23:21:33.077Z,99355.75
2023-05-06T23:23:59.566Z,99345.88
2023-05-06T23:26:26.592Z,99346.69
2023-05-06T23:28:52.957Z,99334.81
2023-05-06T23:31:19.489Z,99324.13
2023-05-06T23:33:45.982Z,99330.47
2023-05-06T23:36:12.415Z,99332.03
2023-05-06T23:38:38.816Z,99330.47
2023-05-06T23:41:05.232Z,99327.66
2023-05-06T23:43:31.645Z,99332.84
2023-05-06T23:45:58.143Z,99324.13
2023-05-06T23:48:24.585Z,99324.53
2023-05-06T23:50:50.971Z,99330.06
2023-05-06T23:53:17.452Z,99322.97
2023-05-06T23:55:43.969Z,99334.06
2023-05-06T23:58:10.404Z,99332.84
